Time;durP1;ratioP1;P1;durP2;ratioP2;P2;SDS_P1;SDS_P2;PMS_P1;PMS_P2;Temp;Humidity;BMP_temperature;BMP_pressure;BME280_temperature;BME280_humidity;BME280_pressure;Samples;Min_cycle;Max_cycle;Signal;HPM_P1;HPM_P2
2021/08/06 05:03:35;;;;;;;;;;;;;;;20.70;89.36;99101.57;1825052;77;20149;-69
2021/08/06 05:06:02;;;;;;;;;;;;;;;20.75;88.90;99113.28;1803256;78;20394;-69
2021/08/06 05:08:31;;;;;;;;;;;;;;;20.83;88.70;99108.42;1832205;78;21193;-68
2021/08/06 05:10:58;;;;;;;;;;;;;;;20.90;88.49;99104.09;1799451;78;20490;-68
2021/08/06 05:13:25;;;;;;;;;;;;;;;20.97;88.47;99106.36;1793491;80;20174;-68
2021/08/06 05:15:54;;;;;;;;;;;;;;;21.03;88.47;99108.31;1796523;79;20127;-68
2021/08/06 05:18:20;;;;;;;;;;;;;;;21.07;88.52;99096.38;1814389;78;20078;-68
2021/08/06 05:20:47;;;;;;;;;;;;;;;21.11;88.57;99095.03;1821241;78;21534;-68
2021/08/06 05:23:14;;;;;;;;;;;;;;;21.15;88.47;99097.65;1778341;78;20078;-68
2021/08/06 05:25:41;;;;;;;;;;;;;;;21.19;88.72;99094.95;1782615;80;20090;-68
2021/08/06 05:28:09;;;;;;;;;;;;;;;21.23;88.72;99098.92;1827333;78;20388;-68
2021/08/06 05:30:36;;;;;;;;;;;;;;;21.27;88.54;99101.54;1776406;78;20087;-68
2021/08/06 05:33:04;;;;;;;;;;;;;;;21.35;88.25;99104.63;1764015;81;21199;-68
2021/08/06 05:35:31;;;;;;;;;;;;;;;21.43;88.18;99099.27;1764914;81;20068;-68
2021/08/06 05:37:59;;;;;;;;;;;;;;;21.54;88.05;99103.33;1765246;81;20175;-68
2021/08/06 05:40:27;;;;;;;;;;;;;;;21.68;87.95;99101.20;1764920;81;20100;-68
2021/08/06 05:42:56;;;;;;;;;;;;;;;21.86;87.09;99095.57;1791008;78;20481;-68
2021/08/06 05:45:25;;;;;;;;;;;;;;;22.06;85.88;99101.17;1832177;78;21813;-69
2021/08/06 05:47:53;;;;;;;;;;;;;;;22.23;84.49;99103.48;1832415;78;20091;-68
2021/08/06 05:50:25;;;;;;;;;;;;;;;22.37;82.89;99108.47;1832109;78;20091;-69
2021/08/06 05:52:52;;;;;;;;;;;;;;;22.47;81.68;99114.80;1831838;78;20157;-69
2021/08/06 05:55:20;;;;;;;;;;;;;;;22.49;81.20;99114.93;1832080;78;20445;-68
2021/08/06 05:57:49;;;;;;;;;;;;;;;22.52;80.75;99115.06;1831591;78;21016;-67
2021/08/06 06:00:17;;;;;;;;;;;;;;;22.48;80.58;99120.42;1831937;78;20099;-68
2021/08/06 06:02:46;;;;;;;;;;;;;;;22.41;80.88;99119.00;1816107;77;20142;-67
2021/08/06 06:05:16;;;;;;;;;;;;;;;22.35;80.96;99116.29;1785016;79;20396;-68
2021/08/06 06:07:45;;;;;;;;;;;;;;;22.29;81.17;99119.17;1785861;80;20412;-68
2021/08/06 06:10:12;;;;;;;;;;;;;;;22.19;81.18;99110.66;1785300;80;21088;-67
2021/08/06 06:12:40;;;;;;;;;;;;;;;22.01;81.74;99120.28;1784383;80;20153;-67
2021/08/06 06:15:07;;;;;;;;;;;;;;;21.93;82.39;99134.43;1793220;78;20180;-67
2021/08/06 06:17:34;;;;;;;;;;;;;;;21.92;82.68;99125.34;1808778;78;20149;-67
2021/08/06 06:20:03;;;;;;;;;;;;;;;21.92;82.79;99116.87;1799731;78;20075;-68
2021/08/06 06:22:30;;;;;;;;;;;;;;;21.88;82.98;99129.34;1792918;78;21100;-67
2021/08/06 06:24:58;;;;;;;;;;;;;;;21.84;83.27;99132.03;1788972;79;20676;-67
2021/08/06 06:27:24;;;;;;;;;;;;;;;21.83;83.35;99135.19;1814968;79;20390;-66
2021/08/06 06:29:51;;;;;;;;;;;;;;;21.86;83.50;99137.48;1814920;79;20198;-67
2021/08/06 06:32:18;;;;;;;;;;;;;;;21.92;83.27;99137.27;1793271;79;20114;-67
2021/08/06 06:34:45;;;;;;;;;;;;;;;21.98;83.28;99128.59;1771178;80;23203;-67
2021/08/06 06:37:12;;;;;;;;;;;;;;;22.03;82.95;99128.05;1789362;79;20128;-67
2021/08/06 06:39:39;;;;;;;;;;;;;;;22.02;82.91;99132.53;1814619;79;20120;-68
2021/08/06 06:42:07;;;;;;;;;;;;;;;22.05;82.90;99142.77;1798584;78;20119;-67
2021/08/06 06:44:36;;;;;;;;;;;;;;;22.10;82.96;99130.30;1788356;78;20138;-68
2021/08/06 06:47:03;;;;;;;;;;;;;;;22.15;83.00;99128.75;1784977;80;21009;-68
2021/08/06 06:49:30;;;;;;;;;;;;;;;22.21;82.90;99128.03;1784909;80;20078;-68
2021/08/06 06:51:57;;;;;;;;;;;;;;;22.26;82.91;99126.98;1775080;79;20189;-67
2021/08/06 06:54:24;;;;;;;;;;;;;;;22.39;82.66;99131.66;1781532;80;20086;-66
2021/08/06 06:56:51;;;;;;;;;;;;;;;22.53;81.93;99127.32;1760728;78;20132;-68
2021/08/06 06:59:18;;;;;;;;;;;;;;;22.64;81.09;99125.53;1793959;78;21197;-67
2021/08/06 07:01:46;;;;;;;;;;;;;;;22.72;80.43;99131.25;1792819;79;20140;-68
2021/08/06 07:04:12;;;;;;;;;;;;;;;22.83;80.06;99136.08;1784898;80;20117;-68
2021/08/06 07:06:39;;;;;;;;;;;;;;;23.10;78.87;99135.39;1787392;80;20144;-66
2021/08/06 07:09:08;;;;;;;;;;;;;;;23.54;77.70;99133.08;1765434;80;20423;-66
2021/08/06 07:11:36;;;;;;;;;;;;;;;24.19;75.15;99128.75;1764457;81;21746;-69
2021/08/06 07:14:03;;;;;;;;;;;;;;;25.04;71.03;99133.38;1763829;81;20141;-65
2021/08/06 07:16:30;;;;;;;;;;;;;;;25.77;67.08;99128.45;1780900;78;20122;-66
2021/08/06 07:18:57;;;;;;;;;;;;;;;26.39;64.24;99133.02;1778306;80;20098;-66
2021/08/06 07:21:24;;;;;;;;;;;;;;;26.95;62.17;99142.52;1796181;80;20114;-67
2021/08/06 07:23:51;;;;;;;;;;;;;;;27.54;59.79;99132.83;1796538;78;21007;-69
2021/08/06 07:26:19;;;;;;;;;;;;;;;28.04;56.61;99123.97;1796289;78;20106;-70
2021/08/06 07:28:46;;;;;;;;;;;;;;;28.31;55.68;99125.91;1796259;80;20082;-70
2021/08/06 07:31:13;;;;;;;;;;;;;;;28.41;55.44;99128.34;1796192;80;20070;-67
2021/08/06 07:33:40;;;;;;;;;;;;;;;28.36;54.65;99135.42;1795939;80;20078;-67
2021/08/06 07:36:07;;;;;;;;;;;;;;;28.10;55.03;99120.41;1798365;78;21041;-68
2021/08/06 07:38:34;;;;;;;;;;;;;;;27.76;55.99;99129.80;1788519;80;20089;-68
2021/08/06 07:41:01;;;;;;;;;;;;;;;27.56;56.27;99135.29;1787667;79;20168;-67
2021/08/06 07:43:42;;;;;;;;;;;;;;;27.35;56.44;99135.64;1787025;80;20139;-67
2021/08/06 07:46:17;;;;;;;;;;;;;;;27.10;57.17;99131.08;1814959;78;20425;-67
2021/08/06 07:48:44;;;;;;;;;;;;;;;26.99;57.83;99144.28;1806092;78;21120;-67
2021/08/06 07:51:12;;;;;;;;;;;;;;;26.92;58.36;99136.27;1782878;80;20396;-67
2021/08/06 07:53:38;;;;;;;;;;;;;;;26.95;58.77;99135.84;1796052;80;20122;-68
2021/08/06 07:56:06;;;;;;;;;;;;;;;27.00;59.01;99129.89;1796199;80;20570;-68
2021/08/06 07:58:34;;;;;;;;;;;;;;;27.10;58.42;99116.89;1764937;80;20097;-66
2021/08/06 08:01:01;;;;;;;;;;;;;;;27.12;58.20;99120.99;1764993;81;21257;-66
2021/08/06 08:03:27;;;;;;;;;;;;;;;27.05;58.48;99117.53;1775038;80;20090;-67
2021/08/06 08:05:55;;;;;;;;;;;;;;;27.10;58.33;99120.91;1821024;78;20409;-67
2021/08/06 08:08:21;;;;;;;;;;;;;;;27.31;57.84;99121.06;1804880;78;20078;-66
2021/08/06 08:10:49;;;;;;;;;;;;;;;27.51;57.40;99115.88;1796068;79;20090;-67
2021/08/06 08:13:21;;;;;;;;;;;;;;;27.70;56.88;99108.75;1796318;79;21096;-67
2021/08/06 08:15:52;;;;;;;;;;;;;;;27.76;56.86;99105.20;1795977;79;20094;-67
2021/08/06 08:18:18;;;;;;;;;;;;;;;27.94;56.68;99111.64;1813965;78;20076;-67
2021/08/06 08:20:47;;;;;;;;;;;;;;;28.04;56.13;99102.03;1828744;77;20114;-67
2021/08/06 08:23:16;;;;;;;;;;;;;;;28.04;55.98;99097.20;1828713;78;20111;-68
2021/08/06 08:25:44;;;;;;;;;;;;;;;27.92;56.93;99093.13;1825685;78;21116;-68
2021/08/06 08:31:53;;;;;;;;;;;;;;;28.01;55.78;99088.28;1800447;79;20113;-68
2021/08/06 08:34:20;;;;;;;;;;;;;;;28.16;54.62;99091.42;1803189;78;20118;-68
2021/08/06 08:36:49;;;;;;;;;;;;;;;28.23;54.22;99090.05;1808011;78;20129;-68
2021/08/06 08:39:17;;;;;;;;;;;;;;;28.24;54.16;99089.83;1804134;79;21144;-68
2021/08/06 08:41:45;;;;;;;;;;;;;;;28.19;54.72;99089.64;1797544;79;20113;-68
2021/08/06 08:44:12;;;;;;;;;;;;;;;28.23;53.56;99090.05;1819677;79;20209;-68
2021/08/06 08:46:39;;;;;;;;;;;;;;;28.20;53.44;99104.66;1796984;78;20573;-68
2021/08/06 08:49:05;;;;;;;;;;;;;;;28.10;53.02;99101.67;1769042;80;20151;-68
2021/08/06 08:51:35;;;;;;;;;;;;;;;27.95;53.24;99103.39;1763722;81;21115;-68
2021/08/06 08:54:05;;;;;;;;;;;;;;;27.82;53.78;99108.86;1763190;81;20225;-68
2021/08/06 08:56:32;;;;;;;;;;;;;;;27.82;54.30;99102.17;1763153;81;20156;-68
2021/08/06 08:58:59;;;;;;;;;;;;;;;27.89;53.99;99100.25;1795483;78;20113;-68
2021/08/06 09:01:27;;;;;;;;;;;;;;;28.01;53.46;99106.49;1786844;80;20155;-68
2021/08/06 09:03:55;;;;;;;;;;;;;;;28.13;53.28;99111.42;1787776;80;21112;-68
2021/08/06 09:06:32;;;;;;;;;;;;;;;28.25;53.25;99109.39;1765536;79;20113;-68
2021/08/06 09:09:14;;;;;;;;;;;;;;;28.34;52.61;99106.72;1758274;80;20085;-67
2021/08/06 09:11:44;;;;;;;;;;;;;;;28.38;52.22;99102.03;1752207;81;20268;-67
2021/08/06 09:14:29;;;;;;;;;;;;;;;28.34;52.28;99094.67;1762471;79;20130;-66
2021/08/06 09:17:09;;;;;;;;;;;;;;;28.34;52.35;99090.12;1784574;80;20074;-67
2021/08/06 09:19:46;;;;;;;;;;;;;;;28.39;51.75;99082.77;1785451;80;20098;-67
2021/08/06 09:22:20;;;;;;;;;;;;;;;28.39;51.57;99081.42;1794927;78;20111;-66
2021/08/06 09:25:14;;;;;;;;;;;;;;;28.35;51.90;99068.19;1822951;78;20135;-66
2021/08/06 09:27:45;;;;;;;;;;;;;;;28.32;52.11;99073.47;1821288;78;20087;-66
2021/08/06 09:30:32;;;;;;;;;;;;;;;28.25;52.11;99067.89;1799559;79;21128;-66
2021/08/06 09:33:01;;;;;;;;;;;;;;;28.22;51.96;99061.13;1784576;79;20083;-66
2021/08/06 09:35:37;;;;;;;;;;;;;;;28.16;51.24;99047.25;1785362;80;20086;-68
2021/08/06 09:38:19;;;;;;;;;;;;;;;28.10;51.16;99046.28;1777777;80;20095;-67
2021/08/06 09:40:46;;;;;;;;;;;;;;;28.11;51.50;99048.44;1784964;80;20109;-67
2021/08/06 09:43:16;;;;;;;;;;;;;;;28.19;51.63;99047.63;1785132;80;20982;-67
2021/08/06 09:45:43;;;;;;;;;;;;;;;28.29;51.37;99043.13;1784733;80;20083;-67
2021/08/06 09:48:10;;;;;;;;;;;;;;;28.38;50.23;99043.13;1794878;78;20099;-65
2021/08/06 09:50:44;;;;;;;;;;;;;;;28.50;49.95;99039.95;1822700;78;20099;-67
2021/08/06 09:53:12;;;;;;;;;;;;;;;28.68;49.38;99042.31;1822219;78;20123;-66
2021/08/06 09:55:48;;;;;;;;;;;;;;;28.81;48.64;99047.46;1821909;78;21091;-66
2021/08/06 09:58:22;;;;;;;;;;;;;;;28.88;48.31;99049.56;1822459;78;20111;-67
2021/08/06 10:00:50;;;;;;;;;;;;;;;28.87;46.93;99050.61;1787179;78;20078;-67
2021/08/06 10:03:35;;;;;;;;;;;;;;;28.72;47.93;99059.05;1781489;80;20535;-67
2021/08/06 10:06:15;;;;;;;;;;;;;;;28.61;48.37;99056.31;1792770;79;20146;-67
2021/08/06 10:08:43;;;;;;;;;;;;;;;28.51;48.65;99056.84;1792881;78;21042;-67
2021/08/06 10:11:09;;;;;;;;;;;;;;;28.44;49.21;99056.92;1792700;79;20115;-67
2021/08/06 10:13:38;;;;;;;;;;;;;;;28.40;49.32;99045.02;1792712;79;20123;-67
2021/08/06 10:16:06;;;;;;;;;;;;;;;28.41;49.71;99044.50;1792897;79;20123;-67
2021/08/06 10:18:33;;;;;;;;;;;;;;;28.46;49.82;99045.98;1792733;80;20146;-67
2021/08/06 10:21:00;;;;;;;;;;;;;;;28.51;49.79;99040.77;1792913;80;21183;-67
2021/08/06 10:23:27;;;;;;;;;;;;;;;28.52;49.98;99049.92;1792632;79;20134;-67
2021/08/06 10:25:53;;;;;;;;;;;;;;;28.60;50.08;99052.81;1792821;79;20440;-67
2021/08/06 10:28:20;;;;;;;;;;;;;;;28.69;50.14;99040.74;1792706;79;20123;-67
2021/08/06 10:30:47;;;;;;;;;;;;;;;28.77;49.83;99031.05;1792866;80;20118;-67
2021/08/06 10:33:34;;;;;;;;;;;;;;;28.81;49.35;99035.41;1792720;78;21714;-67
2021/08/06 10:35:50;;;;;;;;;;;;;;;28.82;49.40;99035.20;1788312;80;20130;-68
2021/08/06 10:38:40;;;;;;;;;;;;;;;28.88;49.61;99027.60;1792741;80;20150;-66
2021/08/06 10:41:13;;;;;;;;;;;;;;;28.97;49.85;99025.41;1792968;80;20280;-66
2021/08/06 10:43:49;;;;;;;;;;;;;;;29.07;49.06;99023.00;1792930;80;20445;-66
2021/08/06 10:46:19;;;;;;;;;;;;;;;29.14;49.26;99022.38;1792877;80;21120;-67
2021/08/06 10:48:49;;;;;;;;;;;;;;;29.20;49.27;99028.13;1792731;80;20197;-67
2021/08/06 10:51:25;;;;;;;;;;;;;;;29.26;48.96;99021.03;1791911;80;20207;-67
2021/08/06 10:53:59;;;;;;;;;;;;;;;29.25;48.94;99021.25;1792756;79;20154;-66
2021/08/06 10:56:39;;;;;;;;;;;;;;;29.25;48.89;99025.28;1792958;79;20158;-66
2021/08/06 10:59:11;;;;;;;;;;;;;;;29.24;49.04;99027.66;1792684;79;21148;-67
2021/08/06 11:01:45;;;;;;;;;;;;;;;29.23;48.05;99027.38;1792743;79;20114;-67
2021/08/06 11:04:16;;;;;;;;;;;;;;;29.16;48.10;99028.33;1792457;79;20449;-67
2021/08/06 11:06:52;;;;;;;;;;;;;;;29.07;48.08;99018.98;1792050;80;20166;-68
2021/08/06 11:09:31;;;;;;;;;;;;;;;29.02;48.33;99014.01;1801802;78;20087;-68
2021/08/06 11:12:02;;;;;;;;;;;;;;;28.97;49.00;99006.66;1825103;78;20107;-67
2021/08/06 11:14:43;;;;;;;;;;;;;;;28.92;48.86;98994.46;1832000;78;20064;-66
2021/08/06 11:17:22;;;;;;;;;;;;;;;28.90;49.25;98996.55;1832243;77;20120;-66
2021/08/06 11:19:54;;;;;;;;;;;;;;;28.87;49.17;98994.33;1829440;78;20071;-67
2021/08/06 11:22:30;;;;;;;;;;;;;;;28.82;49.27;98987.50;1831853;78;20118;-67
2021/08/06 11:25:01;;;;;;;;;;;;;;;28.81;49.44;98987.17;1819215;78;20370;-67
2021/08/06 11:27:40;;;;;;;;;;;;;;;28.83;49.71;98987.80;1791818;80;20092;-68
2021/08/06 11:30:16;;;;;;;;;;;;;;;28.85;49.81;98977.66;1798552;80;20090;-67
2021/08/06 11:32:50;;;;;;;;;;;;;;;28.90;48.98;98979.66;1818581;78;20272;-67
2021/08/06 11:35:17;;;;;;;;;;;;;;;28.86;48.00;98982.80;1816687;78;20158;-70
2021/08/06 11:37:54;;;;;;;;;;;;;;;28.71;48.47;98974.36;1788266;78;21403;-65
2021/08/06 11:40:30;;;;;;;;;;;;;;;28.51;49.54;98971.95;1775793;78;20138;-67
2021/08/06 11:43:14;;;;;;;;;;;;;;;28.44;50.24;98971.23;1792999;79;20425;-66
2021/08/06 11:45:52;;;;;;;;;;;;;;;28.45;50.61;98987.59;1797195;78;20387;-66
2021/08/06 11:48:40;;;;;;;;;;;;;;;28.46;50.28;98970.48;1798501;78;20096;-69
2021/08/06 11:51:33;;;;;;;;;;;;;;;28.41;50.24;98949.44;1821958;77;20075;-68
2021/08/06 11:54:10;;;;;;;;;;;;;;;28.39;50.21;98959.59;1801128;78;20162;-67
2021/08/06 11:56:41;;;;;;;;;;;;;;;28.43;50.29;98982.16;1804944;78;20075;-68
2021/08/06 11:59:10;;;;;;;;;;;;;;;28.49;49.82;98989.30;1830066;78;20389;-66
2021/08/06 12:01:40;;;;;;;;;;;;;;;28.51;49.74;98983.19;1825227;78;20133;-67
2021/08/06 12:04:11;;;;;;;;;;;;;;;28.52;49.88;98980.28;1794302;78;21242;-67
2021/08/06 12:06:53;;;;;;;;;;;;;;;28.55;49.88;98973.66;1748785;80;20098;-69
2021/08/06 12:09:21;;;;;;;;;;;;;;;28.58;49.59;98973.20;1784986;79;20114;-68
2021/08/06 12:11:49;;;;;;;;;;;;;;;28.58;48.98;98964.35;1783293;78;20124;-68
2021/08/06 12:14:28;;;;;;;;;;;;;;;28.53;48.94;98953.80;1821908;78;20100;-67
2021/08/06 12:16:57;;;;;;;;;;;;;;;28.58;49.23;98962.49;1791225;78;20115;-68
2021/08/06 12:19:25;;;;;;;;;;;;;;;28.63;49.38;98952.44;1790938;78;21840;-69
2021/08/06 12:21:51;;;;;;;;;;;;;;;28.66;48.90;98954.13;1805181;78;20097;-66
2021/08/06 12:24:22;;;;;;;;;;;;;;;28.62;48.95;98957.50;1771260;80;20598;-67
2021/08/06 12:26:51;;;;;;;;;;;;;;;28.54;49.06;98959.45;1814341;78;20076;-67
2021/08/06 12:29:30;;;;;;;;;;;;;;;28.48;49.28;98958.20;1821712;78;21487;-67
2021/08/06 12:31:59;;;;;;;;;;;;;;;28.40;49.66;98947.28;1822317;78;20150;-69
2021/08/06 12:34:34;;;;;;;;;;;;;;;28.39;50.13;98953.69;1798160;78;20142;-67
2021/08/06 12:37:07;;;;;;;;;;;;;;;28.41;49.99;98952.12;1785209;78;20106;-67
2021/08/06 12:39:50;;;;;;;;;;;;;;;28.35;50.53;98957.89;1784754;80;20091;-66
2021/08/06 12:42:37;;;;;;;;;;;;;;;28.35;50.64;98968.59;1785139;78;21062;-67
2021/08/06 12:45:21;;;;;;;;;;;;;;;28.40;50.47;98967.89;1743842;82;20093;-68
2021/08/06 12:47:51;;;;;;;;;;;;;;;28.42;50.18;98971.97;1808779;78;20112;-67
2021/08/06 12:50:44;;;;;;;;;;;;;;;;;;;;;
2021/08/06 12:53:13;;;;;;;;;;;;;;;28.37;50.50;98958.48;1810738;78;20088;-66
2021/08/06 12:55:41;;;;;;;;;;;;;;;28.33;50.40;98973.36;1819840;78;21909;-67
2021/08/06 12:58:20;;;;;;;;;;;;;;;28.30;50.68;98973.81;1822811;78;20450;-67
2021/08/06 13:00:51;;;;;;;;;;;;;;;28.33;50.64;98980.05;1822385;78;20111;-67
2021/08/06 13:03:22;;;;;;;;;;;;;;;28.40;50.89;98963.87;1822233;78;20079;-67
2021/08/06 13:05:59;;;;;;;;;;;;;;;28.47;51.00;98974.80;1775837;80;20468;-66
2021/08/06 13:08:43;;;;;;;;;;;;;;;28.48;51.33;98976.95;1764221;79;21134;-67
2021/08/06 13:11:17;;;;;;;;;;;;;;;28.48;51.45;98983.64;1769741;80;20085;-67
2021/08/06 13:13:47;;;;;;;;;;;;;;;28.42;51.87;98981.34;1819873;78;20422;-66
2021/08/06 13:16:22;;;;;;;;;;;;;;;28.38;51.79;98982.88;1804422;78;20665;-66
2021/08/06 13:18:51;;;;;;;;;;;;;;;28.37;51.65;98973.20;1784904;80;20117;-68
2021/08/06 13:21:19;;;;;;;;;;;;;;;28.38;51.26;98973.50;1776699;80;21121;-66
2021/08/06 13:23:46;;;;;;;;;;;;;;;28.39;51.36;98968.41;1782118;80;20145;-67
2021/08/06 13:26:14;;;;;;;;;;;;;;;28.42;51.40;98965.28;1796494;78;20158;-66
2021/08/06 13:28:50;;;;;;;;;;;;;;;28.43;51.40;98970.11;1816964;78;20104;-68
2021/08/06 13:31:30;;;;;;;;;;;;;;;28.43;51.57;98966.91;1771452;79;20149;-70
2021/08/06 13:34:08;;;;;;;;;;;;;;;28.40;51.74;98966.03;1777999;80;21145;-70
2021/08/06 13:36:53;;;;;;;;;;;;;;;28.38;52.00;98973.50;1800093;78;20090;-67
2021/08/06 13:39:32;;;;;;;;;;;;;;;28.36;52.11;98982.80;1778320;79;20117;-66
2021/08/06 13:41:59;;;;;;;;;;;;;;;28.31;51.78;98976.78;1719418;82;20111;-66
2021/08/06 13:44:26;;;;;;;;;;;;;;;28.27;51.95;98982.81;1716785;83;20093;-66
2021/08/06 13:46:53;;;;;;;;;;;;;;;28.21;52.29;98979.17;1730274;81;21127;-67
2021/08/06 13:49:19;;;;;;;;;;;;;;;28.17;52.57;98980.63;1726693;81;20150;-67
2021/08/06 13:51:47;;;;;;;;;;;;;;;28.12;52.80;98988.00;1748046;81;20159;-67
2021/08/06 13:54:14;;;;;;;;;;;;;;;28.05;53.12;98993.95;1763379;81;20174;-67
2021/08/06 13:56:42;;;;;;;;;;;;;;;27.96;53.51;99002.52;1763100;81;20433;-68
2021/08/06 13:59:11;;;;;;;;;;;;;;;27.84;53.79;99003.25;1763812;81;21183;-68
